Time;durP1;ratioP1;P1;durP2;ratioP2;P2;SDS_P1;SDS_P2;PMS_P1;PMS_P2;Temp;Humidity;BMP_temperature;BMP_pressure;BME280_temperature;BME280_humidity;BME280_pressure;Samples;Min_cycle;Max_cycle;Signal;HPM_P1;HPM_P2
2023/12/29 00:02:33;;;;;;;0.40;0.40;;;;;;;8.90;100.00;100523.94;10412387;28;20029;-72
2023/12/29 00:07:33;;;;;;;1.88;1.85;;;;;;;8.87;100.00;100532.41;10414061;28;20075;-72
2023/12/29 00:12:34;;;;;;;0.50;0.50;;;;;;;8.83;100.00;100502.28;10413052;28;20395;-71
2023/12/29 00:17:37;;;;;;;1.67;1.65;;;;;;;8.81;100.00;100526.78;10412504;28;20575;-72
2023/12/29 00:22:37;;;;;;;0.60;0.60;;;;;;;8.86;100.00;100523.47;10412201;28;20390;-72
2023/12/29 00:27:38;;;;;;;1.08;1.02;;;;;;;8.94;100.00;100504.44;10410403;28;20033;-70
2023/12/29 00:32:38;;;;;;;2.03;1.75;;;;;;;8.95;100.00;100516.09;10413778;28;20029;-72
2023/12/29 00:37:39;;;;;;;0.70;0.70;;;;;;;9.05;100.00;100530.06;10410945;28;20075;-72
2023/12/29 00:42:39;;;;;;;1.17;1.13;;;;;;;9.06;100.00;100510.13;10413566;28;20438;-71
2023/12/29 00:47:40;;;;;;;0.40;0.40;;;;;;;9.17;100.00;100506.06;10411849;28;20369;-72
2023/12/29 00:52:40;;;;;;;2.15;2.05;;;;;;;9.13;100.00;100529.09;10411491;28;20052;-70
2023/12/29 00:57:41;;;;;;;0.50;0.50;;;;;;;9.16;100.00;100507.09;10411092;28;20373;-70
2023/12/29 01:02:41;;;;;;;1.10;1.00;;;;;;;9.23;100.00;100511.50;10409603;28;20038;-72
2023/12/29 01:07:42;;;;;;;0.50;0.50;;;;;;;9.28;100.00;100509.06;10410504;28;20124;-71
2023/12/29 01:12:42;;;;;;;0.50;0.50;;;;;;;9.18;100.00;100488.81;10395944;28;20059;-72
2023/12/29 01:17:43;;;;;;;1.95;1.95;;;;;;;9.18;100.00;100488.81;10427157;28;20029;-70
2023/12/29 01:22:43;;;;;;;1.77;1.67;;;;;;;9.19;100.00;100507.53;10413012;28;20054;-72
2023/12/29 01:27:43;;;;;;;16.50;3.78;;;;;;;9.19;100.00;100512.94;10408822;28;20033;-70
2023/12/29 01:32:44;;;;;;;12.85;3.95;;;;;;;9.26;100.00;100502.16;10411520;28;20045;-70
2023/12/29 01:37:44;;;;;;;13.00;3.42;;;;;;;9.29;100.00;100496.38;10413052;28;20041;-71
2023/12/29 01:42:44;;;;;;;12.13;4.60;;;;;;;9.18;100.00;100480.69;10409101;28;20137;-72
2023/12/29 01:47:46;;;;;;;10.73;3.30;;;;;;;9.27;100.00;100495.72;10409666;28;20313;-70
2023/12/29 01:52:46;;;;;;;31.20;6.18;;;;;;;9.24;100.00;100517.72;10408056;28;20056;-71
2023/12/29 01:57:47;;;;;;;18.08;4.38;;;;;;;9.32;100.00;100514.88;10407215;28;20037;-70
2023/12/29 02:02:47;;;;;;;17.25;3.80;;;;;;;9.32;100.00;100494.09;10424295;28;20033;-70
2023/12/29 02:07:47;;;;;;;12.65;3.95;;;;;;;9.30;100.00;100514.25;10423874;28;20156;-71
2023/12/29 02:12:49;;;;;;;14.52;5.03;;;;;;;9.37;100.00;100525.09;10407395;28;20060;-69
2023/12/29 02:17:53;;;;;;;13.48;5.00;;;;;;;9.39;100.00;100523.03;10407238;28;20037;-70
2023/12/29 02:22:54;;;;;;;19.92;4.93;;;;;;;9.40;100.00;100547.13;10423105;28;20041;-70
2023/12/29 02:28:09;;;;;;;10.32;4.22;;;;;;;9.41;100.00;100534.47;10408368;28;20030;-70
2023/12/29 02:33:10;;;;;;;13.32;4.10;;;;;;;9.40;100.00;100528.22;10422150;28;20037;-70
2023/12/29 02:38:11;;;;;;;25.58;5.80;;;;;;;9.44;100.00;100543.00;10406333;28;20037;-70
2023/12/29 02:43:11;;;;;;;14.30;5.05;;;;;;;9.59;100.00;100544.75;10406662;28;20029;-71
2023/12/29 02:48:12;;;;;;;29.80;8.27;;;;;;;9.52;100.00;100550.97;10407999;28;20034;-72
2023/12/29 02:53:12;;;;;;;25.35;7.72;;;;;;;9.59;100.00;100555.56;10408621;28;20476;-70
2023/12/29 02:58:12;;;;;;;30.55;10.25;;;;;;;9.65;100.00;100544.78;10413404;28;20171;-69
2023/12/29 03:03:13;;;;;;;50.10;12.75;;;;;;;9.59;100.00;100531.25;10415258;28;20091;-70
2023/12/29 03:08:13;;;;;;;39.20;9.93;;;;;;;9.53;100.00;100522.88;10415022;28;20350;-70
2023/12/29 03:13:13;;;;;;;27.48;7.07;;;;;;;9.58;100.00;100507.97;10415509;28;20075;-69
2023/12/29 03:18:14;;;;;;;45.83;11.95;;;;;;;9.54;100.00;100508.34;10413858;28;20095;-71
2023/12/29 03:23:14;;;;;;;44.55;9.80;;;;;;;9.72;100.00;100512.38;10371849;28;20659;-71
2023/12/29 03:28:15;;;;;;;23.77;8.65;;;;;;;9.76;100.00;100503.69;10373981;28;20030;-70
2023/12/29 03:33:15;;;;;;;32.17;10.38;;;;;;;9.69;100.00;100501.97;10373345;28;20454;-71
2023/12/29 03:38:16;;;;;;;38.47;11.68;;;;;;;9.71;100.00;100505.31;10372961;28;20132;-70
2023/12/29 03:43:16;;;;;;;33.97;10.23;;;;;;;9.59;100.00;100504.22;10371404;28;20041;-71
2023/12/29 03:48:16;;;;;;;35.25;12.63;;;;;;;9.48;100.00;100487.53;10371851;28;20026;-70
2023/12/29 03:53:19;;;;;;;32.17;10.75;;;;;;;9.45;100.00;100496.03;10372024;28;20136;-70
2023/12/29 03:58:19;;;;;;;29.05;7.40;;;;;;;9.49;100.00;100496.47;10372129;28;20473;-72
2023/12/29 04:03:19;;;;;;;35.65;11.02;;;;;;;9.57;100.00;100504.41;10371899;28;20037;-71
2023/12/29 04:08:20;;;;;;;26.25;9.15;;;;;;;9.59;100.00;100496.94;10371443;28;20029;-71
2023/12/29 04:13:20;;;;;;;34.00;9.35;;;;;;;9.53;100.00;100503.97;10369674;28;20037;-71
2023/12/29 04:18:21;;;;;;;38.80;9.75;;;;;;;9.59;100.00;100517.72;10371796;28;20115;-71
2023/12/29 04:23:22;;;;;;;33.65;7.63;;;;;;;9.51;100.00;100500.66;10426971;28;20035;-71
2023/12/29 04:28:22;;;;;;;24.10;9.07;;;;;;;9.49;100.00;100491.91;10426861;28;20029;-71
2023/12/29 04:33:22;;;;;;;36.67;10.60;;;;;;;9.52;100.00;100486.09;10410155;28;20058;-71
2023/12/29 04:38:23;;;;;;;18.80;7.57;;;;;;;9.49;100.00;100494.59;10410036;28;20038;-71
2023/12/29 04:43:24;;;;;;;35.70;9.85;;;;;;;9.51;100.00;100480.91;10411841;28;20036;-71
2023/12/29 04:48:24;;;;;;;33.15;9.77;;;;;;;9.46;100.00;100486.88;10411023;28;20029;-70
2023/12/29 04:53:24;;;;;;;42.60;9.40;;;;;;;9.53;100.00;100479.63;10410979;28;20032;-70
2023/12/29 04:58:25;;;;;;;46.25;10.23;;;;;;;9.55;100.00;100498.38;10410032;28;20029;-70
2023/12/29 05:03:25;;;;;;;36.70;8.80;;;;;;;9.62;100.00;100501.09;10409818;28;20437;-70
2023/12/29 05:08:26;;;;;;;20.83;7.78;;;;;;;9.72;100.00;100496.16;10409520;28;20360;-71
2023/12/29 05:13:26;;;;;;;33.45;8.20;;;;;;;9.73;100.00;100500.50;10409014;28;20084;-71
2023/12/29 05:18:29;;;;;;;22.45;7.82;;;;;;;9.73;100.00;100484.28;10410036;28;20083;-70
2023/12/29 05:23:30;;;;;;;37.50;11.32;;;;;;;9.70;100.00;100477.44;10410931;28;20045;-70
2023/12/29 05:28:30;;;;;;;31.75;8.77;;;;;;;9.75;100.00;100485.75;10424948;28;20056;-70
2023/12/29 05:33:31;;;;;;;24.45;8.63;;;;;;;9.74;100.00;100511.16;10410021;28;20038;-71
2023/12/29 05:38:31;;;;;;;35.88;9.43;;;;;;;9.80;100.00;100496.00;10408241;28;20033;-71
2023/12/29 05:43:32;;;;;;;24.90;7.05;;;;;;;9.77;100.00;100478.28;10410312;28;20038;-72
2023/12/29 05:48:33;;;;;;;21.52;6.35;;;;;;;9.73;100.00;100477.03;10409433;28;20102;-71
2023/12/29 05:53:33;;;;;;;17.85;6.82;;;;;;;9.70;100.00;100490.09;10409091;28;20033;-71
2023/12/29 05:58:33;;;;;;;25.25;5.90;;;;;;;9.63;100.00;100468.44;10408898;28;20025;-70
2023/12/29 06:03:34;;;;;;;13.45;5.68;;;;;;;9.72;100.00;100466.41;10409480;28;20113;-70
2023/12/29 06:08:34;;;;;;;29.13;6.88;;;;;;;9.68;100.00;100457.88;10409415;28;20025;-71
2023/12/29 06:13:35;;;;;;;20.92;5.70;;;;;;;9.81;100.00;100473.31;10408888;28;20044;-71
2023/12/29 06:18:35;;;;;;;22.95;4.88;;;;;;;9.79;100.00;100448.34;10408481;28;20076;-71
2023/12/29 06:23:35;;;;;;;11.98;5.13;;;;;;;9.87;100.00;100455.44;10408986;28;20060;-71
2023/12/29 06:28:36;;;;;;;26.58;7.28;;;;;;;9.94;100.00;100453.59;10410772;28;20065;-71
2023/12/29 06:33:37;;;;;;;15.98;6.22;;;;;;;9.81;100.00;100454.38;10416567;28;20122;-73
2023/12/29 06:38:37;;;;;;;15.52;4.05;;;;;;;9.84;100.00;100475.63;10414918;28;20356;-69
2023/12/29 06:43:37;;;;;;;19.67;5.80;;;;;;;9.90;100.00;100466.69;10415469;28;20064;-70
2023/12/29 06:48:38;;;;;;;14.70;4.65;;;;;;;9.88;100.00;100462.50;10360961;28;20037;-70
2023/12/29 06:53:38;;;;;;;8.38;3.63;;;;;;;9.81;100.00;100454.38;10415170;28;20080;-69
2023/12/29 06:58:39;;;;;;;19.42;4.47;;;;;;;9.80;100.00;100450.03;10414757;28;20441;-69
2023/12/29 07:03:39;;;;;;;19.02;6.28;;;;;;;9.85;100.00;100474.56;10415060;28;20113;-70
2023/12/29 07:08:39;;;;;;;14.23;3.67;;;;;;;9.93;100.00;100473.56;10414629;28;20120;-70
2023/12/29 07:13:40;;;;;;;7.47;4.00;;;;;;;9.95;100.00;100447.97;10414433;28;20160;-68
2023/12/29 07:18:41;;;;;;;9.00;4.50;;;;;;;10.05;100.00;100444.88;10414105;28;20050;-71
2023/12/29 07:23:41;;;;;;;13.70;4.00;;;;;;;10.13;100.00;100454.66;10414115;28;20377;-70
2023/12/29 07:28:42;;;;;;;27.77;5.13;;;;;;;10.12;100.00;100459.25;10398510;28;20061;-69
2023/12/29 07:33:42;;;;;;;11.10;4.13;;;;;;;10.06;100.00;100472.75;10432083;28;20063;-70
2023/12/29 07:38:44;;;;;;;13.13;5.03;;;;;;;9.94;100.00;100462.53;10413688;28;20117;-70
2023/12/29 07:43:44;;;;;;;21.77;4.85;;;;;;;10.05;100.00;100461.13;10415477;28;20068;-71
2023/12/29 07:48:45;;;;;;;9.10;4.05;;;;;;;10.01;100.00;100457.97;10416245;28;20060;-70
2023/12/29 07:53:45;;;;;;;9.27;3.33;;;;;;;9.85;100.00;100460.22;10414859;28;20385;-69
2023/12/29 07:58:46;;;;;;;4.80;2.85;;;;;;;9.82;100.00;100466.84;10413800;28;20409;-69
2023/12/29 08:03:46;;;;;;;5.18;3.40;;;;;;;9.78;100.00;100457.50;10415214;28;20037;-71
2023/12/29 08:08:46;;;;;;;7.35;1.75;;;;;;;9.80;100.00;100478.94;10412114;28;20303;-66
2023/12/29 08:13:47;;;;;;;3.15;2.05;;;;;;;9.96;100.00;100473.16;10427803;28;20369;-69
2023/12/29 08:18:49;;;;;;;11.18;2.47;;;;;;;10.01;100.00;100490.41;10410258;28;20490;-68
2023/12/29 08:23:49;;;;;;;14.50;4.90;;;;;;;10.08;100.00;100478.78;10389491;28;20037;-70
2023/12/29 08:28:50;;;;;;;11.52;3.92;;;;;;;10.05;100.00;100496.28;10426588;28;20048;-69
2023/12/29 08:33:50;;;;;;;22.00;3.92;;;;;;;10.05;100.00;100496.28;10410528;28;20041;-68
2023/12/29 08:38:52;;;;;;;3.50;2.17;;;;;;;10.01;100.00;100490.41;10425185;28;20115;-70
2023/12/29 08:43:53;;;;;;;10.15;3.25;;;;;;;10.08;100.00;100495.03;10410998;28;20041;-69
2023/12/29 08:48:53;;;;;;;10.90;1.98;;;;;;;10.09;100.00;100494.84;10410421;28;20107;-72
2023/12/29 08:53:54;;;;;;;16.58;3.42;;;;;;;10.20;100.00;100498.78;10409411;28;20037;-71
2023/12/29 08:58:54;;;;;;;9.02;3.08;;;;;;;10.20;100.00;100505.03;10408929;28;20448;-71
2023/12/29 09:03:55;;;;;;;5.80;2.63;;;;;;;10.32;100.00;100505.31;10409933;28;20067;-69
2023/12/29 09:08:55;;;;;;;21.80;3.88;;;;;;;10.36;100.00;100503.84;10425497;28;20410;-70
2023/12/29 09:13:56;;;;;;;4.72;3.40;;;;;;;10.48;100.00;100513.03;10410667;28;20481;-68
2023/12/29 09:18:56;;;;;;;8.70;3.22;;;;;;;10.64;100.00;100511.81;10409193;28;20053;-71
2023/12/29 09:23:58;;;;;;;4.45;3.00;;;;;;;10.65;100.00;100513.47;10408082;28;20508;-68
2023/12/29 09:28:58;;;;;;;23.77;4.68;;;;;;;10.65;100.00;100521.59;10408894;28;20036;-68
2023/12/29 09:34:00;;;;;;;13.50;3.17;;;;;;;10.68;100.00;100521.16;10409001;28;20044;-71
2023/12/29 09:39:00;;;;;;;15.80;3.50;;;;;;;10.69;100.00;100547.22;10408843;28;20094;-71
2023/12/29 09:44:01;;;;;;;19.65;5.20;;;;;;;10.71;100.00;100536.19;10424531;28;20042;-72
2023/12/29 09:49:03;;;;;;;3.70;2.70;;;;;;;10.96;100.00;100538.28;10407296;28;20421;-70
2023/12/29 09:54:03;;;;;;;13.05;4.20;;;;;;;11.05;100.00;100554.09;10407727;28;20041;-69
2023/12/29 09:59:04;;;;;;;4.63;2.22;;;;;;;11.22;100.00;100559.09;10424002;28;20469;-69
2023/12/29 10:04:04;;;;;;;17.17;4.40;;;;;;;11.30;100.00;100548.06;10412343;28;20112;-68
2023/12/29 10:09:05;;;;;;;13.98;3.08;;;;;;;11.21;100.00;100563.69;10417575;28;20408;-70
2023/12/29 10:14:15;;;;;;;21.88;4.35;;;;;;;11.12;100.00;100563.06;10415446;28;20458;-68
2023/12/29 10:19:39;;;;;;;21.90;5.55;;;;;;;11.18;100.00;100585.78;10408718;28;20478;-69
2023/12/29 10:24:39;;;;;;;23.08;5.70;;;;;;;11.16;100.00;100582.44;10409335;28;20029;-70
2023/12/29 10:29:40;;;;;;;18.42;6.47;;;;;;;11.14;100.00;100576.41;10414747;28;20021;-72
2023/12/29 10:34:41;;;;;;;28.58;7.07;;;;;;;11.16;100.00;100590.56;10415335;28;20052;-71
2023/12/29 10:40:00;;;;;;;35.40;7.55;;;;;;;11.16;100.00;100599.53;10413868;28;20380;-71
2023/12/29 10:45:05;;;;;;;8.90;5.07;;;;;;;11.08;100.00;100602.47;10413695;28;20052;-70
2023/12/29 10:50:06;;;;;;;27.40;5.68;;;;;;;11.12;100.00;100603.72;10413946;28;20439;-69
2023/12/29 10:55:10;;;;;;;14.88;6.47;;;;;;;11.13;100.00;100601.84;10413623;28;20037;-72
2023/12/29 11:00:13;;;;;;;15.38;6.10;;;;;;;11.13;100.00;100620.81;10428418;28;20423;-70
2023/12/29 11:05:14;;;;;;;19.75;5.65;;;;;;;11.22;100.00;100607.88;10414448;28;20113;-68
2023/12/29 11:10:14;;;;;;;20.42;6.95;;;;;;;11.22;100.00;100611.44;10428802;28;20029;-69
2023/12/29 11:15:15;;;;;;;24.15;6.57;;;;;;;11.24;100.00;100605.81;10302530;28;20034;-70
2023/12/29 11:20:16;;;;;;;21.65;6.38;;;;;;;11.28;100.00;100605.16;10412528;28;20361;-69
2023/12/29 11:25:17;;;;;;;27.08;7.55;;;;;;;11.28;100.00;100596.22;10411010;28;20079;-70
2023/12/29 11:30:17;;;;;;;25.85;5.80;;;;;;;11.37;100.00;100613.94;10428400;28;20049;-70
2023/12/29 11:35:51;;;;;;;11.00;5.47;;;;;;;11.45;100.00;100616.41;10412622;28;20077;-69
2023/12/29 11:41:10;;;;;;;23.67;5.00;;;;;;;11.46;100.00;100606.44;10366659;28;20438;-71
2023/12/29 11:46:47;;;;;;;20.25;4.28;;;;;;;11.51;100.00;100610.16;10408341;28;20037;-71
2023/12/29 11:51:50;;;;;;;28.77;5.40;;;;;;;11.41;100.00;100599.72;10426442;28;20694;-71
2023/12/29 11:56:55;;;;;;;21.90;4.82;;;;;;;11.50;100.00;100596.81;10410209;28;20495;-71
2023/12/29 12:01:56;;;;;;;11.32;3.08;;;;;;;11.48;100.00;100590.75;10410400;28;20158;-71
2023/12/29 12:06:57;;;;;;;15.45;4.53;;;;;;;11.62;100.00;100589.72;10411560;28;20030;-71
2023/12/29 12:11:57;;;;;;;9.50;3.38;;;;;;;11.47;100.00;100586.38;10411895;28;20163;-68
2023/12/29 12:16:58;;;;;;;13.38;4.90;;;;;;;11.45;100.00;100588.47;10426705;28;20079;-72
2023/12/29 12:21:58;;;;;;;19.38;3.92;;;;;;;11.39;100.00;100577.44;10410023;28;20147;-70
2023/12/29 12:27:00;;;;;;;24.60;5.13;;;;;;;11.40;100.00;100578.28;10426249;28;20082;-70
2023/12/29 12:32:00;;;;;;;16.92;3.25;;;;;;;11.34;100.00;100579.94;10409316;28;20021;-69
2023/12/29 12:37:03;;;;;;;11.88;5.40;;;;;;;11.23;100.00;100558.91;10412218;28;20037;-72
2023/12/29 12:42:04;;;;;;;26.42;5.00;;;;;;;11.21;100.00;100560.16;10409053;28;20026;-69
2023/12/29 12:47:06;;;;;;;10.55;3.03;;;;;;;11.29;100.00;100543.66;10408825;28;20037;-68
2023/12/29 12:52:07;;;;;;;12.32;5.35;;;;;;;11.29;100.00;100547.19;10407675;28;20368;-71
2023/12/29 12:57:07;;;;;;;16.75;5.97;;;;;;;11.34;100.00;100560.97;10408270;28;20131;-70
2023/12/29 13:02:08;;;;;;;8.25;3.50;;;;;;;11.31;100.00;100571.41;10410692;28;20111;-72
2023/12/29 13:07:08;;;;;;;13.65;5.13;;;;;;;11.25;100.00;100570.34;10410150;28;20112;-73
2023/12/29 13:12:10;;;;;;;13.77;4.47;;;;;;;11.22;100.00;100561.81;10410141;28;20036;-71
2023/12/29 13:17:11;;;;;;;10.93;4.28;;;;;;;11.12;100.00;100557.66;10411672;28;20047;-71
2023/12/29 13:22:14;;;;;;;14.35;4.47;;;;;;;11.13;100.00;100553.06;10427579;28;20244;-70
2023/12/29 13:27:15;;;;;;;12.50;4.50;;;;;;;11.21;100.00;100563.69;10407204;28;20453;-72
2023/12/29 13:32:18;;;;;;;26.08;5.20;;;;;;;11.21;100.00;100544.72;10407304;28;20399;-70
2023/12/29 13:37:24;;;;;;;14.48;4.90;;;;;;;11.16;100.00;100549.91;10409862;28;20029;-71
2023/12/29 13:42:25;;;;;;;7.50;3.67;;;;;;;11.27;100.00;100548.47;10407555;28;20350;-72
2023/12/29 13:47:25;;;;;;;15.30;3.95;;;;;;;11.31;100.00;100547.00;10406862;28;20034;-70
2023/12/29 13:52:25;;;;;;;13.55;3.10;;;;;;;11.36;100.00;100541.78;10409716;28;20068;-69
2023/12/29 13:57:31;;;;;;;24.00;5.60;;;;;;;11.34;100.00;100533.84;10411252;28;20355;-73
2023/12/29 14:02:31;;;;;;;18.77;6.38;;;;;;;11.19;100.00;100535.94;10407105;28;20029;-71
2023/12/29 14:07:31;;;;;;;26.67;6.80;;;;;;;11.06;100.00;100525.97;10406339;28;20037;-71
2023/12/29 14:12:32;;;;;;;28.10;6.47;;;;;;;11.06;100.00;100523.25;10406624;28;20032;-73
2023/12/29 14:17:33;;;;;;;20.80;7.82;;;;;;;11.07;100.00;100522.22;10407487;28;20105;-71
2023/12/29 14:22:34;;;;;;;14.80;6.22;;;;;;;11.04;100.00;100525.34;10421978;28;20107;-71
2023/12/29 14:27:34;;;;;;;17.17;7.38;;;;;;;10.77;100.00;100515.56;10405891;28;20369;-72
2023/12/29 14:32:35;;;;;;;15.13;5.25;;;;;;;10.45;100.00;100491.78;10407835;28;20037;-74
2023/12/29 14:37:35;;;;;;;23.60;6.65;;;;;;;10.33;100.00;100492.59;10407037;28;20041;-72
2023/12/29 14:42:35;;;;;;;21.20;5.88;;;;;;;10.20;100.00;100480.69;10397045;28;20057;-70
2023/12/29 14:47:36;;;;;;;22.23;4.35;;;;;;;10.14;100.00;100467.97;10366261;28;20045;-70
2023/12/29 14:52:36;;;;;;;18.02;6.03;;;;;;;9.99;100.00;100457.34;10372265;28;20029;-72
2023/12/29 14:57:37;;;;;;;17.80;3.97;;;;;;;10.01;100.00;100467.94;10372731;28;20033;-73
2023/12/29 15:02:37;;;;;;;28.40;5.70;;;;;;;10.10;100.00;100463.19;10373632;28;20030;-70
2023/12/29 15:07:37;;;;;;;19.77;6.43;;;;;;;10.17;100.00;100450.50;10372143;28;20030;-73
2023/12/29 15:12:40;;;;;;;10.32;4.60;;;;;;;10.12;100.00;100443.03;10371776;28;20440;-70
2023/12/29 15:17:41;;;;;;;11.88;4.78;;;;;;;10.10;100.00;100442.38;10372096;28;20065;-72
2023/12/29 15:22:43;;;;;;;16.17;5.45;;;;;;;10.13;100.00;100439.25;10372158;28;20069;-70
2023/12/29 15:27:43;;;;;;;23.85;4.85;;;;;;;10.19;100.00;100437.63;10370646;28;20045;-72
2023/12/29 15:32:43;;;;;;;18.08;5.93;;;;;;;10.18;100.00;100425.13;10371586;28;20136;-73
2023/12/29 15:37:44;;;;;;;7.85;4.70;;;;;;;10.22;100.00;100404.72;10409524;28;20057;-69
2023/12/29 15:42:44;;;;;;;13.23;4.85;;;;;;;10.19;100.00;100395.16;10386441;28;20030;-70
2023/12/29 15:47:45;;;;;;;16.42;4.93;;;;;;;10.14;100.00;100385.97;10428036;28;20036;-69
2023/12/29 15:52:47;;;;;;;22.02;4.88;;;;;;;10.05;100.00;100376.41;10411925;28;20157;-70
2023/12/29 15:57:47;;;;;;;18.80;6.75;;;;;;;9.90;100.00;100369.31;10394661;28;20030;-69
2023/12/29 16:02:48;;;;;;;14.05;4.40;;;;;;;9.76;100.00;100402.78;10411597;28;20041;-69
2023/12/29 16:07:48;;;;;;;6.53;3.60;;;;;;;9.63;100.00;100405.44;10412319;28;20041;-70
2023/12/29 16:12:48;;;;;;;10.45;3.15;;;;;;;9.51;100.00;100438.47;10412031;28;20400;-71
2023/12/29 16:17:49;;;;;;;5.50;2.45;;;;;;;9.57;100.00;100457.63;10411024;28;20037;-71
2023/12/29 16:22:49;;;;;;;12.35;3.72;;;;;;;9.67;100.00;100467.03;10410198;28;20666;-69
2023/12/29 16:27:50;;;;;;;21.70;10.32;;;;;;;9.74;100.00;100488.69;10411152;28;20057;-69
2023/12/29 16:32:50;;;;;;;1.20;1.10;;;;;;;9.47;100.00;100498.53;10410582;28;20423;-70
2023/12/29 16:37:52;;;;;;;2.30;1.65;;;;;;;9.25;100.00;100497.78;10410182;28;20033;-70
2023/12/29 16:42:53;;;;;;;2.45;1.48;;;;;;;8.93;100.00;100505.47;10411448;28;20057;-70
2023/12/29 16:47:53;;;;;;;6.85;2.97;;;;;;;8.80;100.00;100500.78;10411588;28;20056;-70
2023/12/29 16:52:53;;;;;;;8.77;4.18;;;;;;;8.72;100.00;100510.91;10411973;28;20522;-69
2023/12/29 16:57:54;;;;;;;8.27;4.63;;;;;;;8.61;100.00;100510.44;10411080;28;20030;-69
2023/12/29 17:02:54;;;;;;;12.23;3.72;;;;;;;8.65;100.00;100518.09;10411428;28;20087;-71
2023/12/29 17:07:55;;;;;;;12.70;4.78;;;;;;;8.68;100.00;100515.00;10409246;28;20072;-71
2023/12/29 17:12:55;;;;;;;21.85;5.10;;;;;;;8.61;100.00;100521.22;10409205;28;20041;-70
2023/12/29 17:17:56;;;;;;;10.35;4.75;;;;;;;8.61;100.00;100536.56;10408674;28;20075;-70
2023/12/29 17:22:56;;;;;;;26.83;5.32;;;;;;;8.72;100.00;100563.03;10408422;28;20133;-69
2023/12/29 17:27:56;;;;;;;15.35;5.63;;;;;;;8.56;100.00;100544.41;10409067;28;20038;-70
2023/12/29 17:32:57;;;;;;;10.48;4.05;;;;;;;8.50;100.00;100556.81;10408735;28;20068;-70
2023/12/29 17:37:57;;;;;;;14.25;4.28;;;;;;;8.47;100.00;100553.66;10409678;28;20029;-69
2023/12/29 17:42:58;;;;;;;8.52;4.57;;;;;;;8.49;100.00;100557.03;10390996;28;20060;-70
2023/12/29 17:48:00;;;;;;;11.05;4.38;;;;;;;8.53;100.00;100561.81;10409102;28;20107;-69
2023/12/29 17:53:00;;;;;;;16.13;5.93;;;;;;;8.55;100.00;100565.19;10407165;28;20029;-68
2023/12/29 17:58:01;;;;;;;13.98;5.70;;;;;;;8.58;100.00;100570.19;10408614;28;20033;-69
2023/12/29 18:03:02;;;;;;;20.08;5.68;;;;;;;8.59;100.00;100565.63;10409414;28;20472;-69
2023/12/29 18:08:04;;;;;;;11.93;4.03;;;;;;;8.56;100.00;100584.91;10408784;28;20033;-69
2023/12/29 18:13:04;;;;;;;15.18;4.30;;;;;;;8.56;100.00;100587.59;10408699;28;20130;-69
2023/12/29 18:18:05;;;;;;;20.83;4.15;;;;;;;8.60;100.00;100588.88;10409191;28;20047;-70
2023/12/29 18:23:07;;;;;;;6.18;2.85;;;;;;;8.57;100.00;100591.97;10407619;28;20053;-68
2023/12/29 18:28:07;;;;;;;3.65;3.22;;;;;;;8.55;100.00;100597.56;10415063;28;20025;-70
2023/12/29 18:33:09;;;;;;;9.73;1.98;;;;;;;8.56;100.00;100593.81;10416191;28;20057;-70
2023/12/29 18:38:09;;;;;;;2.67;1.83;;;;;;;8.47;100.00;100596.84;10431468;28;20029;-69
2023/12/29 18:43:09;;;;;;;7.20;2.05;;;;;;;8.50;100.00;100599.97;10414235;28;20132;-70
2023/12/29 18:48:10;;;;;;;4.97;2.72;;;;;;;8.55;100.00;100604.78;10414456;28;20079;-69
2023/12/29 18:53:10;;;;;;;4.60;2.10;;;;;;;8.59;100.00;100604.25;10414050;28;20448;-70
2023/12/29 18:58:11;;;;;;;4.75;2.45;;;;;;;8.59;100.00;100603.41;10415038;28;20037;-68
2023/12/29 19:03:11;;;;;;;5.03;1.98;;;;;;;8.73;100.00;100609.75;10430386;28;20045;-70
2023/12/29 19:08:12;;;;;;;3.72;2.05;;;;;;;8.77;100.00;100629.94;10413583;28;20082;-68
2023/12/29 19:13:12;;;;;;;5.55;1.42;;;;;;;8.79;100.00;100625.19;10414735;28;20102;-69
2023/12/29 19:18:13;;;;;;;19.67;3.15;;;;;;;8.82;100.00;100638.31;10430153;28;20491;-71
2023/12/29 19:23:13;;;;;;;2.42;2.13;;;;;;;8.96;100.00;100629.31;10429464;28;20053;-70
2023/12/29 19:28:13;;;;;;;3.10;1.55;;;;;;;8.78;100.00;100616.28;10413904;28;20098;-70
2023/12/29 19:33:14;;;;;;;6.20;2.42;;;;;;;8.69;100.00;100603.09;10414616;28;20060;-70
2023/12/29 19:38:14;;;;;;;3.67;1.70;;;;;;;8.58;100.00;100596.31;10412665;28;20033;-69
2023/12/29 19:43:15;;;;;;;3.97;1.52;;;;;;;8.44;100.00;100606.16;10412467;28;20099;-70
2023/12/29 19:48:15;;;;;;;4.65;2.63;;;;;;;8.49;100.00;100605.59;10413462;28;20134;-69
2023/12/29 19:53:18;;;;;;;8.82;2.55;;;;;;;8.49;100.00;100584.84;10409879;28;20036;-70
2023/12/29 19:58:19;;;;;;;7.72;3.90;;;;;;;8.56;100.00;100601.09;10412167;28;20045;-68
2023/12/29 20:03:19;;;;;;;6.05;3.58;;;;;;;8.74;100.00;100625.78;10414194;28;20083;-70
2023/12/29 20:08:20;;;;;;;3.75;2.95;;;;;;;8.55;100.00;100643.44;10413587;28;20025;-72
2023/12/29 20:13:20;;;;;;;7.50;1.80;;;;;;;6.99;100.00;100655.06;10412366;28;20064;-76
2023/12/29 20:18:20;;;;;;;2.05;1.90;;;;;;;6.53;100.00;100648.81;10429616;28;20112;-76
2023/12/29 20:23:21;;;;;;;4.43;2.60;;;;;;;6.62;100.00;100639.66;10416745;28;20061;-76
2023/12/29 20:28:21;;;;;;;11.10;2.90;;;;;;;6.78;100.00;100648.66;10433227;28;20476;-76
2023/12/29 20:33:22;;;;;;;11.68;4.55;;;;;;;6.92;100.00;100664.00;10416247;28;20060;-75
2023/12/29 20:38:22;;;;;;;6.90;2.53;;;;;;;7.05;100.00;100669.66;10415354;28;20025;-70
2023/12/29 20:43:22;;;;;;;15.70;3.40;;;;;;;7.17;100.00;100683.50;10416430;28;20025;-71
2023/12/29 20:48:23;;;;;;;13.35;4.50;;;;;;;7.22;100.00;100673.88;10411571;28;20029;-71
2023/12/29 20:53:23;;;;;;;17.33;4.65;;;;;;;7.41;100.00;100679.78;10414060;28;20032;-73
2023/12/29 20:58:24;;;;;;;23.92;4.60;;;;;;;7.51;100.00;100658.81;10414047;28;20476;-75
2023/12/29 21:03:24;;;;;;;17.88;4.28;;;;;;;7.66;100.00;100689.31;10412718;28;20068;-72
2023/12/29 21:08:25;;;;;;;8.35;3.15;;;;;;;7.82;100.00;100690.19;10410804;28;20167;-71
2023/12/29 21:13:29;;;;;;;11.70;3.03;;;;;;;7.84;100.00;100697.03;10410514;28;20457;-70
2023/12/29 21:18:30;;;;;;;5.90;2.72;;;;;;;7.86;100.00;100699.56;10411157;28;20364;-72
2023/12/29 21:23:30;;;;;;;11.23;2.83;;;;;;;7.87;100.00;100706.63;10408625;28;20128;-71
2023/12/29 21:28:31;;;;;;;7.30;2.58;;;;;;;7.85;100.00;100703.28;10411433;28;20122;-72
2023/12/29 21:33:31;;;;;;;16.25;3.45;;;;;;;7.63;100.00;100711.25;10408750;28;20552;-72
2023/12/29 21:38:32;;;;;;;15.88;3.67;;;;;;;7.60;100.00;100694.59;10409271;28;20411;-74
2023/12/29 21:43:32;;;;;;;21.30;4.03;;;;;;;7.62;100.00;100692.53;10409316;28;20021;-72
2023/12/29 21:48:36;;;;;;;9.57;2.97;;;;;;;7.64;100.00;100699.44;10409001;28;20084;-72
2023/12/29 21:53:36;;;;;;;10.57;3.78;;;;;;;7.73;100.00;100696.66;10407573;28;20179;-73
2023/12/29 21:58:37;;;;;;;23.48;4.00;;;;;;;7.70;100.00;100700.56;10409589;28;20038;-72
2023/12/29 22:03:37;;;;;;;6.70;3.05;;;;;;;7.70;100.00;100705.94;10417310;28;20413;-72
2023/12/29 22:08:39;;;;;;;8.68;3.67;;;;;;;7.68;100.00;100716.91;10417171;28;20044;-71
2023/12/29 22:13:40;;;;;;;9.23;4.38;;;;;;;7.55;100.00;100719.38;10416094;28;20522;-71
2023/12/29 22:18:40;;;;;;;18.38;4.43;;;;;;;7.43;100.00;100721.69;10418345;28;20099;-72
2023/12/29 22:23:42;;;;;;;8.80;2.72;;;;;;;7.41;100.00;100742.59;10416258;28;20049;-72
2023/12/29 22:28:43;;;;;;;9.35;3.08;;;;;;;7.44;100.00;100760.25;10415973;28;20052;-73
2023/12/29 22:33:44;;;;;;;21.42;4.15;;;;;;;7.36;100.00;100757.59;10415289;28;20108;-72
2023/12/29 22:38:44;;;;;;;6.45;3.78;;;;;;;7.22;100.00;100753.84;10431162;28;20022;-72
2023/12/29 22:43:46;;;;;;;8.93;3.22;;;;;;;7.22;100.00;100765.44;10415788;28;20102;-70
2023/12/29 22:48:46;;;;;;;5.53;2.38;;;;;;;7.21;100.00;100779.09;10415432;28;20037;-72